SAS512 EDDS-EKCH
Flight info
| Callsign | SAS512 |
|---|---|
| Flight time | 1h 16m |
| Altitude | 38000 |
| Route | OKIBA4H/07 OKIBA N851 RIMKI Z99 LOHRE DCT MASEK DCT BERXO DCT MAKEL N851 GESKA Z711 MONAK |
| Aircraft | A319/M-SDE3FGHIRWY/LB1 |
Departure
| Time | 2026-04-26 19:22 |
|---|---|
| Airport | Stuttgart Airport (EDDS) |
Arrival
| Time | 2026-04-26 20:38 |
|---|---|
| Airport | Copenhagen Kastrup Airport (EKCH) |
| Time | Latitude | Longitude | Altitude | Speed | Heading |
|---|---|---|---|---|---|
| 2026-04-26 18:55 | 48.68932 | 9.19652 | 1291 ft | 0 kts | 343° |
| 2026-04-26 19:10 | 48.68927 | 9.19654 | 1285 ft | 2 kts | 343° |
| 2026-04-26 19:11 | 48.68909 | 9.19661 | 1290 ft | 3 kts | 349° |
| 2026-04-26 19:11 | 48.68895 | 9.19665 | 1289 ft | 3 kts | 355° |
| 2026-04-26 19:11 | 48.68876 | 9.19665 | 1289 ft | 3 kts | 13° |
| 2026-04-26 19:11 | 48.68856 | 9.19650 | 1291 ft | 2 kts | 68° |
| 2026-04-26 19:12 | 48.68856 | 9.19649 | 1291 ft | 0 kts | 68° |
| 2026-04-26 19:15 | 48.68862 | 9.19686 | 1288 ft | 8 kts | 76° |
| 2026-04-26 19:15 | 48.68883 | 9.19794 | 1285 ft | 12 kts | 72° |
| 2026-04-26 19:15 | 48.68847 | 9.19885 | 1285 ft | 13 kts | 158° |
| 2026-04-26 19:15 | 48.68776 | 9.19946 | 1285 ft | 12 kts | 161° |
| 2026-04-26 19:16 | 48.68726 | 9.19968 | 1287 ft | 5 kts | 165° |
| 2026-04-26 19:16 | 48.68708 | 9.19975 | 1290 ft | 0 kts | 165° |
| 2026-04-26 19:17 | 48.68707 | 9.19976 | 1290 ft | 1 kts | 165° |
| 2026-04-26 19:17 | 48.68673 | 9.19991 | 1288 ft | 0 kts | 163° |
| 2026-04-26 19:20 | 48.68672 | 9.19991 | 1288 ft | 0 kts | 163° |
| 2026-04-26 19:20 | 48.68667 | 9.19993 | 1287 ft | 3 kts | 163° |
| 2026-04-26 19:20 | 48.68590 | 9.20052 | 1285 ft | 13 kts | 118° |
| 2026-04-26 19:20 | 48.68598 | 9.20142 | 1285 ft | 0 kts | 74° |
| 2026-04-26 19:21 | 48.68598 | 9.20143 | 1285 ft | 0 kts | 74° |
| 2026-04-26 19:21 | 48.68614 | 9.20229 | 1285 ft | 30 kts | 74° |
| 2026-04-26 19:21 | 48.68728 | 9.20824 | 1285 ft | 87 kts | 73° |
| 2026-04-26 19:21 | 48.68946 | 9.21976 | 1286 ft | 139 kts | 74° |
| 2026-04-26 19:22 | 48.69244 | 9.23563 | 1546 ft | 160 kts | 73° |
| 2026-04-26 19:22 | 48.69538 | 9.25179 | 2196 ft | 160 kts | 73° |
| 2026-04-26 19:22 | 48.69843 | 9.26826 | 2740 ft | 169 kts | 73° |
| 2026-04-26 19:22 | 48.70183 | 9.28649 | 3029 ft | 192 kts | 73° |
| 2026-04-26 19:23 | 48.70570 | 9.30711 | 3310 ft | 216 kts | 74° |
| 2026-04-26 19:23 | 48.71004 | 9.33024 | 3723 ft | 241 kts | 74° |
| 2026-04-26 19:23 | 48.71485 | 9.35565 | 4385 ft | 257 kts | 73° |
| 2026-04-26 19:23 | 48.71990 | 9.38223 | 4877 ft | 266 kts | 73° |
| 2026-04-26 19:24 | 48.72505 | 9.40939 | 5289 ft | 272 kts | 73° |
| 2026-04-26 19:24 | 48.73030 | 9.43695 | 6243 ft | 274 kts | 73° |
| 2026-04-26 19:24 | 48.74423 | 9.49139 | 7964 ft | 282 kts | 51° |
| 2026-04-26 19:25 | 48.75884 | 9.51104 | 8812 ft | 284 kts | 26° |
| 2026-04-26 19:25 | 48.77098 | 9.51820 | 9373 ft | 284 kts | 10° |
| 2026-04-26 19:25 | 48.79702 | 9.51587 | 10469 ft | 286 kts | 341° |
| 2026-04-26 19:25 | 48.81706 | 9.50643 | 10756 ft | 310 kts | 341° |
| 2026-04-26 19:26 | 48.83764 | 9.49646 | 11157 ft | 325 kts | 341° |
| 2026-04-26 19:26 | 48.85938 | 9.48591 | 11826 ft | 331 kts | 341° |
| 2026-04-26 19:26 | 48.88144 | 9.47532 | 12562 ft | 335 kts | 341° |
| 2026-04-26 19:26 | 48.90424 | 9.46688 | 13273 ft | 341 kts | 352° |
| 2026-04-26 19:27 | 48.92801 | 9.46368 | 14016 ft | 345 kts | 354° |
| 2026-04-26 19:27 | 48.95202 | 9.46077 | 14660 ft | 348 kts | 354° |
| 2026-04-26 19:27 | 48.97629 | 9.45791 | 15317 ft | 351 kts | 354° |
| 2026-04-26 19:27 | 49.00073 | 9.45506 | 15973 ft | 354 kts | 354° |
| 2026-04-26 19:28 | 49.02537 | 9.45219 | 16635 ft | 356 kts | 354° |
| 2026-04-26 19:28 | 49.05020 | 9.44927 | 17297 ft | 359 kts | 354° |
| 2026-04-26 19:28 | 49.07523 | 9.44625 | 17955 ft | 362 kts | 354° |
| 2026-04-26 19:28 | 49.10047 | 9.44317 | 18591 ft | 365 kts | 354° |
| 2026-04-26 19:29 | 49.12589 | 9.44006 | 19159 ft | 368 kts | 354° |
| 2026-04-26 19:29 | 49.15152 | 9.43691 | 19746 ft | 371 kts | 354° |
| 2026-04-26 19:29 | 49.17735 | 9.43375 | 20324 ft | 373 kts | 354° |
| 2026-04-26 19:29 | 49.20332 | 9.43060 | 20902 ft | 376 kts | 354° |
| 2026-04-26 19:30 | 49.22946 | 9.42746 | 21476 ft | 378 kts | 354° |
| 2026-04-26 19:30 | 49.25575 | 9.42430 | 22047 ft | 381 kts | 354° |
| 2026-04-26 19:30 | 49.28227 | 9.42113 | 22603 ft | 383 kts | 354° |
| 2026-04-26 19:30 | 49.29995 | 9.41902 | 22962 ft | 385 kts | 354° |
| 2026-04-26 19:31 | 49.33548 | 9.41472 | 23677 ft | 388 kts | 354° |
| 2026-04-26 19:31 | 49.36253 | 9.41140 | 24129 ft | 391 kts | 354° |
| 2026-04-26 19:31 | 49.38971 | 9.40806 | 24583 ft | 392 kts | 354° |
| 2026-04-26 19:31 | 49.41699 | 9.40471 | 25021 ft | 394 kts | 354° |
| 2026-04-26 19:32 | 49.44432 | 9.40137 | 25513 ft | 394 kts | 354° |
| 2026-04-26 19:32 | 49.47172 | 9.39797 | 25978 ft | 395 kts | 354° |
| 2026-04-26 19:32 | 49.49915 | 9.39456 | 26413 ft | 397 kts | 354° |
| 2026-04-26 19:32 | 49.52674 | 9.39116 | 26842 ft | 399 kts | 354° |
| 2026-04-26 19:33 | 49.55448 | 9.38775 | 27261 ft | 400 kts | 354° |
| 2026-04-26 19:33 | 49.58235 | 9.38434 | 27686 ft | 402 kts | 354° |
| 2026-04-26 19:33 | 49.61039 | 9.38090 | 28117 ft | 405 kts | 354° |
| 2026-04-26 19:33 | 49.63855 | 9.37746 | 28525 ft | 407 kts | 354° |
| 2026-04-26 19:34 | 49.66682 | 9.37400 | 28935 ft | 409 kts | 354° |
| 2026-04-26 19:34 | 49.69529 | 9.37049 | 29344 ft | 411 kts | 354° |
| 2026-04-26 19:34 | 49.72391 | 9.36704 | 29543 ft | 417 kts | 355° |
| 2026-04-26 19:34 | 49.75320 | 9.36804 | 29685 ft | 426 kts | 4° |
| 2026-04-26 19:35 | 49.78266 | 9.37668 | 29836 ft | 434 kts | 12° |
| 2026-04-26 19:35 | 49.81204 | 9.38810 | 30195 ft | 435 kts | 11° |
| 2026-04-26 19:35 | 49.84132 | 9.39942 | 30668 ft | 433 kts | 11° |
| 2026-04-26 19:35 | 49.87051 | 9.41067 | 31082 ft | 431 kts | 11° |
| 2026-04-26 19:36 | 49.89928 | 9.42170 | 31465 ft | 431 kts | 11° |
| 2026-04-26 19:36 | 49.91892 | 9.42921 | 31735 ft | 430 kts | 11° |
| 2026-04-26 19:36 | 49.95738 | 9.44393 | 32283 ft | 429 kts | 11° |
| 2026-04-26 19:36 | 49.98619 | 9.45502 | 32690 ft | 428 kts | 11° |
| 2026-04-26 19:37 | 50.01513 | 9.46622 | 33105 ft | 427 kts | 11° |
| 2026-04-26 19:37 | 50.04387 | 9.47737 | 33539 ft | 426 kts | 11° |
| 2026-04-26 19:37 | 50.07279 | 9.48711 | 33958 ft | 423 kts | 5° |
| 2026-04-26 19:37 | 50.10208 | 9.49227 | 34359 ft | 421 kts | 3° |
| 2026-04-26 19:38 | 50.13117 | 9.49712 | 34723 ft | 421 kts | 3° |
| 2026-04-26 19:38 | 50.16027 | 9.50197 | 35071 ft | 420 kts | 3° |
| 2026-04-26 19:38 | 50.18932 | 9.50682 | 35406 ft | 420 kts | 3° |
| 2026-04-26 19:38 | 50.21832 | 9.51168 | 35732 ft | 420 kts | 3° |
| 2026-04-26 19:39 | 50.24751 | 9.51658 | 36053 ft | 420 kts | 3° |
| 2026-04-26 19:39 | 50.27657 | 9.52144 | 36375 ft | 420 kts | 3° |
| 2026-04-26 19:39 | 50.30562 | 9.52632 | 36672 ft | 420 kts | 3° |
| 2026-04-26 19:39 | 50.33464 | 9.53123 | 36970 ft | 420 kts | 3° |
| 2026-04-26 19:40 | 50.36373 | 9.53617 | 37267 ft | 419 kts | 3° |
| 2026-04-26 19:40 | 50.39273 | 9.54106 | 37554 ft | 419 kts | 3° |
| 2026-04-26 19:40 | 50.42175 | 9.54595 | 37840 ft | 419 kts | 3° |
| 2026-04-26 19:40 | 50.45038 | 9.55078 | 38105 ft | 419 kts | 3° |
| 2026-04-26 19:41 | 50.47933 | 9.55569 | 38374 ft | 419 kts | 3° |
| 2026-04-26 19:41 | 50.50829 | 9.56061 | 38665 ft | 418 kts | 3° |
| 2026-04-26 19:41 | 50.53719 | 9.56551 | 38925 ft | 418 kts | 3° |
| 2026-04-26 19:41 | 50.55674 | 9.56884 | 39063 ft | 418 kts | 3° |
| 2026-04-26 19:42 | 50.59501 | 9.57536 | 39249 ft | 418 kts | 3° |
| 2026-04-26 19:42 | 50.62392 | 9.58033 | 39283 ft | 419 kts | 3° |
| 2026-04-26 19:42 | 50.68182 | 9.59028 | 39285 ft | 419 kts | 3° |
| 2026-04-26 19:43 | 50.73953 | 9.60454 | 39283 ft | 423 kts | 13° |
| 2026-04-26 19:43 | 50.79516 | 9.63580 | 39282 ft | 425 kts | 16° |
| 2026-04-26 19:44 | 50.85082 | 9.66741 | 39282 ft | 425 kts | 16° |
| 2026-04-26 19:44 | 50.90629 | 9.69892 | 39287 ft | 425 kts | 16° |
| 2026-04-26 19:45 | 50.96216 | 9.73078 | 39302 ft | 425 kts | 16° |
| 2026-04-26 19:45 | 51.01783 | 9.76267 | 39295 ft | 425 kts | 16° |
| 2026-04-26 19:46 | 51.07352 | 9.79463 | 39307 ft | 425 kts | 16° |
| 2026-04-26 19:46 | 51.12917 | 9.82669 | 39298 ft | 425 kts | 16° |
| 2026-04-26 19:47 | 51.16593 | 9.84790 | 39315 ft | 425 kts | 16° |
| 2026-04-26 19:47 | 51.24042 | 9.89099 | 39313 ft | 425 kts | 15° |
| 2026-04-26 19:48 | 51.29629 | 9.92197 | 39308 ft | 425 kts | 15° |
| 2026-04-26 19:48 | 51.35186 | 9.95217 | 39306 ft | 425 kts | 15° |
| 2026-04-26 19:49 | 51.40780 | 9.98296 | 39326 ft | 425 kts | 15° |
| 2026-04-26 19:49 | 51.46360 | 10.01394 | 39315 ft | 425 kts | 15° |
| 2026-04-26 19:50 | 51.51945 | 10.04514 | 39312 ft | 425 kts | 15° |
| 2026-04-26 19:50 | 51.57530 | 10.07623 | 39312 ft | 424 kts | 15° |
| 2026-04-26 19:51 | 51.63106 | 10.10742 | 39332 ft | 424 kts | 15° |
| 2026-04-26 19:51 | 51.68685 | 10.13875 | 39324 ft | 424 kts | 15° |
| 2026-04-26 19:52 | 51.74259 | 10.17011 | 39320 ft | 424 kts | 15° |
| 2026-04-26 19:52 | 51.79835 | 10.20150 | 39322 ft | 424 kts | 15° |
| 2026-04-26 19:53 | 51.85403 | 10.23295 | 39336 ft | 424 kts | 15° |
| 2026-04-26 19:53 | 51.90970 | 10.26455 | 39331 ft | 424 kts | 15° |
| 2026-04-26 19:54 | 51.95597 | 10.29090 | 39328 ft | 424 kts | 15° |
| 2026-04-26 19:54 | 52.01158 | 10.32263 | 39325 ft | 424 kts | 15° |
| 2026-04-26 19:55 | 52.06722 | 10.35449 | 39331 ft | 424 kts | 15° |
| 2026-04-26 19:55 | 52.12287 | 10.38635 | 39333 ft | 424 kts | 15° |
| 2026-04-26 19:56 | 52.17854 | 10.41830 | 39327 ft | 424 kts | 15° |
| 2026-04-26 19:56 | 52.23422 | 10.45031 | 39319 ft | 424 kts | 15° |
| 2026-04-26 19:57 | 52.28973 | 10.48249 | 39316 ft | 424 kts | 15° |
| 2026-04-26 19:57 | 52.34539 | 10.51475 | 39327 ft | 424 kts | 15° |
| 2026-04-26 19:58 | 52.40072 | 10.54676 | 39321 ft | 424 kts | 15° |
| 2026-04-26 19:58 | 52.45633 | 10.57914 | 39315 ft | 424 kts | 15° |
| 2026-04-26 19:59 | 52.51190 | 10.61166 | 39311 ft | 424 kts | 15° |
| 2026-04-26 19:59 | 52.56748 | 10.64424 | 39320 ft | 424 kts | 15° |
| 2026-04-26 20:00 | 52.62298 | 10.67678 | 39311 ft | 424 kts | 15° |
| 2026-04-26 20:00 | 52.67848 | 10.70947 | 39306 ft | 424 kts | 15° |
| 2026-04-26 20:01 | 52.73399 | 10.74209 | 39303 ft | 423 kts | 15° |
| 2026-04-26 20:01 | 52.78952 | 10.77485 | 39311 ft | 424 kts | 15° |
| 2026-04-26 20:02 | 52.84503 | 10.80778 | 39305 ft | 424 kts | 15° |
| 2026-04-26 20:02 | 52.89109 | 10.83521 | 39303 ft | 424 kts | 15° |
| 2026-04-26 20:03 | 52.95595 | 10.87391 | 39300 ft | 424 kts | 15° |
| 2026-04-26 20:03 | 53.01145 | 10.90707 | 39299 ft | 424 kts | 15° |
| 2026-04-26 20:04 | 53.06650 | 10.94002 | 39298 ft | 424 kts | 15° |
| 2026-04-26 20:04 | 53.12228 | 10.97369 | 39298 ft | 424 kts | 15° |
| 2026-04-26 20:05 | 53.17759 | 11.00706 | 39301 ft | 424 kts | 15° |
| 2026-04-26 20:05 | 53.23327 | 11.04064 | 39323 ft | 424 kts | 15° |
| 2026-04-26 20:06 | 53.28874 | 11.07431 | 39309 ft | 424 kts | 15° |
| 2026-04-26 20:06 | 53.34418 | 11.10796 | 39302 ft | 424 kts | 15° |
| 2026-04-26 20:07 | 53.39961 | 11.14174 | 39302 ft | 424 kts | 15° |
| 2026-04-26 20:07 | 53.45501 | 11.17562 | 39303 ft | 424 kts | 15° |
| 2026-04-26 20:08 | 53.50959 | 11.20912 | 39322 ft | 424 kts | 15° |
| 2026-04-26 20:08 | 53.56498 | 11.24321 | 39002 ft | 423 kts | 15° |
| 2026-04-26 20:09 | 53.59260 | 11.26021 | 38699 ft | 423 kts | 15° |
| 2026-04-26 20:09 | 53.62020 | 11.27722 | 38391 ft | 423 kts | 15° |
| 2026-04-26 20:09 | 53.64820 | 11.29450 | 38081 ft | 423 kts | 15° |
| 2026-04-26 20:09 | 53.67589 | 11.31162 | 37779 ft | 424 kts | 15° |
| 2026-04-26 20:10 | 53.70325 | 11.32857 | 37479 ft | 424 kts | 15° |
| 2026-04-26 20:10 | 53.73102 | 11.34583 | 37212 ft | 425 kts | 15° |
| 2026-04-26 20:10 | 53.75872 | 11.36309 | 36922 ft | 426 kts | 15° |
| 2026-04-26 20:10 | 53.78652 | 11.38041 | 36635 ft | 426 kts | 15° |
| 2026-04-26 20:11 | 53.81438 | 11.39774 | 36355 ft | 427 kts | 15° |
| 2026-04-26 20:11 | 53.84229 | 11.41513 | 36074 ft | 427 kts | 15° |
| 2026-04-26 20:11 | 53.87021 | 11.43254 | 35798 ft | 428 kts | 15° |
| 2026-04-26 20:12 | 53.92618 | 11.46762 | 35254 ft | 429 kts | 15° |
| 2026-04-26 20:12 | 53.95422 | 11.48526 | 35007 ft | 430 kts | 15° |
| 2026-04-26 20:12 | 53.98230 | 11.50292 | 34744 ft | 431 kts | 15° |
| 2026-04-26 20:12 | 54.01041 | 11.52064 | 34486 ft | 432 kts | 15° |
| 2026-04-26 20:13 | 54.03859 | 11.53842 | 34201 ft | 432 kts | 15° |
| 2026-04-26 20:13 | 54.06679 | 11.55626 | 33898 ft | 431 kts | 15° |
| 2026-04-26 20:13 | 54.09479 | 11.57398 | 33599 ft | 429 kts | 15° |
| 2026-04-26 20:13 | 54.12280 | 11.59171 | 33298 ft | 427 kts | 15° |
| 2026-04-26 20:14 | 54.15061 | 11.60936 | 32917 ft | 425 kts | 15° |
| 2026-04-26 20:14 | 54.17865 | 11.62713 | 31821 ft | 435 kts | 15° |
| 2026-04-26 20:14 | 54.20707 | 11.64514 | 31102 ft | 436 kts | 15° |
| 2026-04-26 20:14 | 54.23498 | 11.66291 | 30537 ft | 432 kts | 15° |
| 2026-04-26 20:15 | 54.26306 | 11.68086 | 29903 ft | 428 kts | 15° |
| 2026-04-26 20:15 | 54.29087 | 11.69863 | 29251 ft | 425 kts | 15° |
| 2026-04-26 20:15 | 54.31841 | 11.71621 | 28615 ft | 421 kts | 15° |
| 2026-04-26 20:15 | 54.34573 | 11.73364 | 27993 ft | 417 kts | 15° |
| 2026-04-26 20:16 | 54.37275 | 11.75093 | 27385 ft | 413 kts | 15° |
| 2026-04-26 20:16 | 54.39964 | 11.76820 | 26788 ft | 410 kts | 15° |
| 2026-04-26 20:16 | 54.42612 | 11.78526 | 26266 ft | 404 kts | 15° |
| 2026-04-26 20:16 | 54.45224 | 11.80221 | 25816 ft | 399 kts | 16° |
| 2026-04-26 20:17 | 54.47816 | 11.82069 | 25666 ft | 409 kts | 18° |
| 2026-04-26 20:17 | 54.50440 | 11.84093 | 25576 ft | 416 kts | 20° |
| 2026-04-26 20:17 | 54.53066 | 11.86211 | 25486 ft | 418 kts | 20° |
| 2026-04-26 20:17 | 54.54838 | 11.87661 | 25384 ft | 418 kts | 20° |
| 2026-04-26 20:18 | 54.58317 | 11.90501 | 24526 ft | 417 kts | 20° |
| 2026-04-26 20:18 | 54.60882 | 11.92588 | 23795 ft | 417 kts | 21° |
| 2026-04-26 20:18 | 54.63378 | 11.95148 | 23004 ft | 419 kts | 29° |
| 2026-04-26 20:18 | 54.65786 | 11.97942 | 22291 ft | 413 kts | 28° |
| 2026-04-26 20:19 | 54.68162 | 12.00680 | 21592 ft | 409 kts | 28° |
| 2026-04-26 20:19 | 54.70527 | 12.03397 | 20860 ft | 406 kts | 28° |
| 2026-04-26 20:19 | 54.72870 | 12.06092 | 20161 ft | 403 kts | 28° |
| 2026-04-26 20:19 | 54.75194 | 12.08774 | 19468 ft | 400 kts | 28° |
| 2026-04-26 20:20 | 54.77508 | 12.11459 | 18805 ft | 398 kts | 28° |
| 2026-04-26 20:20 | 54.79802 | 12.14130 | 18102 ft | 396 kts | 29° |
| 2026-04-26 20:20 | 54.82076 | 12.16779 | 17480 ft | 392 kts | 29° |
| 2026-04-26 20:20 | 54.84323 | 12.19398 | 16879 ft | 386 kts | 29° |
| 2026-04-26 20:21 | 54.86535 | 12.21977 | 16296 ft | 381 kts | 28° |
| 2026-04-26 20:21 | 54.88721 | 12.24525 | 15708 ft | 376 kts | 28° |
| 2026-04-26 20:21 | 54.90874 | 12.27043 | 15139 ft | 371 kts | 28° |
| 2026-04-26 20:21 | 54.93004 | 12.29540 | 14521 ft | 367 kts | 28° |
| 2026-04-26 20:22 | 54.95108 | 12.32011 | 13893 ft | 362 kts | 28° |
| 2026-04-26 20:22 | 54.97159 | 12.34417 | 13271 ft | 357 kts | 28° |
| 2026-04-26 20:22 | 54.99211 | 12.36824 | 12648 ft | 352 kts | 29° |
| 2026-04-26 20:22 | 55.01229 | 12.39194 | 12029 ft | 348 kts | 29° |
| 2026-04-26 20:23 | 55.03229 | 12.41533 | 11413 ft | 345 kts | 29° |
| 2026-04-26 20:23 | 55.05183 | 12.43815 | 11194 ft | 330 kts | 29° |
| 2026-04-26 20:23 | 55.07053 | 12.46018 | 10646 ft | 326 kts | 29° |
| 2026-04-26 20:23 | 55.08926 | 12.48226 | 10345 ft | 318 kts | 29° |
| 2026-04-26 20:24 | 55.10721 | 12.50334 | 10221 ft | 303 kts | 29° |
| 2026-04-26 20:24 | 55.12436 | 12.52347 | 10091 ft | 291 kts | 28° |
| 2026-04-26 20:24 | 55.14086 | 12.54280 | 9943 ft | 280 kts | 28° |
| 2026-04-26 20:24 | 55.15694 | 12.56159 | 9672 ft | 276 kts | 28° |
| 2026-04-26 20:25 | 55.17287 | 12.58020 | 9542 ft | 276 kts | 28° |
| 2026-04-26 20:25 | 55.18348 | 12.59259 | 9448 ft | 276 kts | 28° |
| 2026-04-26 20:25 | 55.20482 | 12.61757 | 9274 ft | 276 kts | 28° |
| 2026-04-26 20:25 | 55.22076 | 12.63627 | 9137 ft | 276 kts | 29° |
| 2026-04-26 20:26 | 55.23688 | 12.65421 | 9013 ft | 273 kts | 24° |
| 2026-04-26 20:26 | 55.25352 | 12.67009 | 8849 ft | 273 kts | 24° |
| 2026-04-26 20:26 | 55.27014 | 12.68612 | 8592 ft | 272 kts | 24° |
| 2026-04-26 20:26 | 55.28641 | 12.70191 | 8315 ft | 271 kts | 25° |
| 2026-04-26 20:27 | 55.30287 | 12.71787 | 8030 ft | 270 kts | 25° |
| 2026-04-26 20:27 | 55.31932 | 12.73381 | 7749 ft | 269 kts | 25° |
| 2026-04-26 20:27 | 55.33650 | 12.74557 | 7470 ft | 263 kts | 5° |
| 2026-04-26 20:27 | 55.35440 | 12.74386 | 7205 ft | 257 kts | 341° |
| 2026-04-26 20:28 | 55.36995 | 12.72935 | 6907 ft | 254 kts | 318° |
| 2026-04-26 20:28 | 55.38157 | 12.70601 | 6621 ft | 254 kts | 308° |
| 2026-04-26 20:28 | 55.39252 | 12.68162 | 6322 ft | 254 kts | 308° |
| 2026-04-26 20:28 | 55.40345 | 12.65728 | 6037 ft | 253 kts | 308° |
| 2026-04-26 20:29 | 55.41441 | 12.63297 | 5621 ft | 255 kts | 308° |
| 2026-04-26 20:29 | 55.42299 | 12.60575 | 5229 ft | 256 kts | 286° |
| 2026-04-26 20:29 | 55.42357 | 12.57465 | 4905 ft | 257 kts | 260° |
| 2026-04-26 20:29 | 55.41561 | 12.54636 | 4489 ft | 263 kts | 231° |
| 2026-04-26 20:30 | 55.40224 | 12.52491 | 4330 ft | 256 kts | 223° |
| 2026-04-26 20:30 | 55.38898 | 12.50482 | 4179 ft | 257 kts | 223° |
| 2026-04-26 20:30 | 55.37520 | 12.48411 | 3967 ft | 257 kts | 223° |
| 2026-04-26 20:30 | 55.36232 | 12.46322 | 3754 ft | 254 kts | 234° |
| 2026-04-26 20:31 | 55.35545 | 12.43585 | 3556 ft | 242 kts | 264° |
| 2026-04-26 20:31 | 55.35768 | 12.40754 | 3341 ft | 232 kts | 295° |
| 2026-04-26 20:31 | 55.36799 | 12.38659 | 3135 ft | 228 kts | 326° |
| 2026-04-26 20:31 | 55.38251 | 12.37616 | 2923 ft | 226 kts | 348° |
| 2026-04-26 20:32 | 55.39805 | 12.37403 | 2710 ft | 223 kts | 354° |
| 2026-04-26 20:32 | 55.41350 | 12.37322 | 2561 ft | 221 kts | 355° |
| 2026-04-26 20:32 | 55.42876 | 12.37499 | 2502 ft | 218 kts | 11° |
| 2026-04-26 20:32 | 55.44207 | 12.38601 | 2502 ft | 207 kts | 33° |
| 2026-04-26 20:33 | 55.45268 | 12.40198 | 2507 ft | 195 kts | 37° |
| 2026-04-26 20:33 | 55.46292 | 12.41758 | 2558 ft | 193 kts | 37° |
| 2026-04-26 20:33 | 55.47282 | 12.43271 | 2502 ft | 185 kts | 37° |
| 2026-04-26 20:33 | 55.48231 | 12.44726 | 2503 ft | 176 kts | 37° |
| 2026-04-26 20:34 | 55.49148 | 12.46129 | 2501 ft | 172 kts | 37° |
| 2026-04-26 20:34 | 55.50008 | 12.47450 | 2506 ft | 157 kts | 36° |
| 2026-04-26 20:34 | 55.50826 | 12.48703 | 2469 ft | 152 kts | 36° |
| 2026-04-26 20:34 | 55.51603 | 12.49894 | 2329 ft | 150 kts | 36° |
| 2026-04-26 20:35 | 55.52392 | 12.51104 | 2151 ft | 149 kts | 36° |
| 2026-04-26 20:35 | 55.53168 | 12.52297 | 1949 ft | 146 kts | 36° |
| 2026-04-26 20:35 | 55.53923 | 12.53459 | 1753 ft | 143 kts | 36° |
| 2026-04-26 20:35 | 55.54674 | 12.54613 | 1555 ft | 143 kts | 36° |
| 2026-04-26 20:36 | 55.55432 | 12.55779 | 1364 ft | 148 kts | 37° |
| 2026-04-26 20:36 | 55.56216 | 12.56986 | 1153 ft | 151 kts | 37° |
| 2026-04-26 20:36 | 55.57004 | 12.58201 | 948 ft | 151 kts | 38° |
| 2026-04-26 20:36 | 55.57789 | 12.59406 | 710 ft | 147 kts | 40° |
| 2026-04-26 20:37 | 55.58550 | 12.60559 | 514 ft | 141 kts | 41° |
| 2026-04-26 20:37 | 55.59288 | 12.61698 | 336 ft | 139 kts | 43° |
| 2026-04-26 20:37 | 55.60003 | 12.62824 | 141 ft | 136 kts | 45° |
| 2026-04-26 20:37 | 55.60698 | 12.63901 | 30 ft | 122 kts | 44° |
| 2026-04-26 20:38 | 55.61229 | 12.64721 | 26 ft | 78 kts | 41° |
| 2026-04-26 20:38 | 55.61524 | 12.65184 | 23 ft | 46 kts | 41° |
| 2026-04-26 20:38 | 55.61686 | 12.65436 | 23 ft | 38 kts | 41° |
| 2026-04-26 20:38 | 55.61818 | 12.65529 | 25 ft | 17 kts | 315° |
| 2026-04-26 20:39 | 55.61891 | 12.65338 | 23 ft | 21 kts | 304° |
| 2026-04-26 20:39 | 55.61975 | 12.65117 | 25 ft | 23 kts | 304° |
| 2026-04-26 20:39 | 55.62074 | 12.65026 | 27 ft | 16 kts | 31° |
| 2026-04-26 20:39 | 55.62177 | 12.65142 | 26 ft | 16 kts | 33° |
| 2026-04-26 20:40 | 55.62284 | 12.65198 | 24 ft | 18 kts | 0° |
| 2026-04-26 20:40 | 55.62408 | 12.65201 | 24 ft | 19 kts | 358° |
| 2026-04-26 20:40 | 55.62543 | 12.65183 | 24 ft | 11 kts | 359° |
| 2026-04-26 20:40 | 55.62629 | 12.65193 | 24 ft | 10 kts | 25° |
| 2026-04-26 20:41 | 55.62681 | 12.65241 | 24 ft | 7 kts | 6° |
| 2026-04-26 20:41 | 55.62710 | 12.65247 | 24 ft | 5 kts | 3° |
| 2026-04-26 20:41 | 55.62728 | 12.65250 | 24 ft | 0 kts | 6° |